sensor_id;sensor_type;location;lat;lon;timestamp;P1;durP1;ratioP1;P2;durP2;ratioP2
65691;SDS011;52411;52.716;6.696;2023-01-25T00:02:16;48.20;;;23.35;;
65691;SDS011;52411;52.716;6.696;2023-01-25T00:04:42;52.47;;;25.80;;
65691;SDS011;52411;52.716;6.696;2023-01-25T00:07:08;52.40;;;25.45;;
65691;SDS011;52411;52.716;6.696;2023-01-25T00:09:33;48.33;;;23.20;;
65691;SDS011;52411;52.716;6.696;2023-01-25T00:11:59;51.00;;;24.10;;
65691;SDS011;52411;52.716;6.696;2023-01-25T00:14:25;50.40;;;24.85;;
65691;SDS011;52411;52.716;6.696;2023-01-25T00:16:51;51.40;;;23.73;;
65691;SDS011;52411;52.716;6.696;2023-01-25T00:19:17;47.95;;;23.63;;
65691;SDS011;52411;52.716;6.696;2023-01-25T00:21:43;46.83;;;24.10;;
65691;SDS011;52411;52.716;6.696;2023-01-25T00:24:08;50.63;;;23.58;;
65691;SDS011;52411;52.716;6.696;2023-01-25T00:26:36;49.22;;;23.80;;
65691;SDS011;52411;52.716;6.696;2023-01-25T00:29:02;48.63;;;24.02;;
65691;SDS011;52411;52.716;6.696;2023-01-25T00:37:02;50.28;;;24.52;;
65691;SDS011;52411;52.716;6.696;2023-01-25T00:39:49;50.10;;;24.30;;
65691;SDS011;52411;52.716;6.696;2023-01-25T00:42:16;49.47;;;23.70;;
65691;SDS011;52411;52.716;6.696;2023-01-25T00:44:43;49.80;;;24.75;;
65691;SDS011;52411;52.716;6.696;2023-01-25T00:47:10;54.40;;;24.92;;
65691;SDS011;52411;52.716;6.696;2023-01-25T00:49:37;49.90;;;23.48;;
65691;SDS011;52411;52.716;6.696;2023-01-25T00:52:06;52.55;;;24.92;;
65691;SDS011;52411;52.716;6.696;2023-01-25T00:54:32;48.33;;;24.05;;
65691;SDS011;52411;52.716;6.696;2023-01-25T00:56:58;47.00;;;24.38;;
65691;SDS011;52411;52.716;6.696;2023-01-25T00:59:24;51.88;;;25.52;;
65691;SDS011;52411;52.716;6.696;2023-01-25T01:01:50;49.58;;;24.42;;
65691;SDS011;52411;52.716;6.696;2023-01-25T01:04:17;51.40;;;24.92;;
65691;SDS011;52411;52.716;6.696;2023-01-25T01:06:43;51.10;;;24.98;;
65691;SDS011;52411;52.716;6.696;2023-01-25T01:09:11;50.42;;;24.70;;
65691;SDS011;52411;52.716;6.696;2023-01-25T01:11:39;53.92;;;25.60;;
65691;SDS011;52411;52.716;6.696;2023-01-25T01:14:04;51.58;;;24.77;;
65691;SDS011;52411;52.716;6.696;2023-01-25T01:16:30;54.05;;;24.40;;
65691;SDS011;52411;52.716;6.696;2023-01-25T01:18:56;50.55;;;24.45;;
65691;SDS011;52411;52.716;6.696;2023-01-25T01:21:22;50.95;;;24.98;;
65691;SDS011;52411;52.716;6.696;2023-01-25T01:23:48;52.60;;;24.90;;
65691;SDS011;52411;52.716;6.696;2023-01-25T01:26:14;52.35;;;24.48;;
65691;SDS011;52411;52.716;6.696;2023-01-25T01:28:43;55.92;;;25.40;;
65691;SDS011;52411;52.716;6.696;2023-01-25T01:31:13;50.30;;;23.77;;
65691;SDS011;52411;52.716;6.696;2023-01-25T01:33:43;53.90;;;25.67;;
65691;SDS011;52411;52.716;6.696;2023-01-25T01:36:13;51.67;;;26.48;;
65691;SDS011;52411;52.716;6.696;2023-01-25T01:38:40;50.80;;;24.20;;
65691;SDS011;52411;52.716;6.696;2023-01-25T01:41:06;54.28;;;25.08;;
65691;SDS011;52411;52.716;6.696;2023-01-25T01:43:32;54.20;;;25.98;;
65691;SDS011;52411;52.716;6.696;2023-01-25T01:46:00;54.08;;;25.30;;
65691;SDS011;52411;52.716;6.696;2023-01-25T01:48:36;51.33;;;24.70;;
65691;SDS011;52411;52.716;6.696;2023-01-25T01:53:53;51.28;;;24.83;;
65691;SDS011;52411;52.716;6.696;2023-01-25T01:56:26;52.90;;;25.10;;
65691;SDS011;52411;52.716;6.696;2023-01-25T02:01:32;54.47;;;25.58;;
65691;SDS011;52411;52.716;6.696;2023-01-25T02:03:58;52.03;;;25.48;;
65691;SDS011;52411;52.716;6.696;2023-01-25T02:06:26;52.55;;;24.40;;
65691;SDS011;52411;52.716;6.696;2023-01-25T02:09:00;51.35;;;25.67;;
65691;SDS011;52411;52.716;6.696;2023-01-25T02:11:26;57.20;;;26.52;;
65691;SDS011;52411;52.716;6.696;2023-01-25T02:13:54;52.65;;;24.70;;
65691;SDS011;52411;52.716;6.696;2023-01-25T02:16:23;56.00;;;25.30;;
65691;SDS011;52411;52.716;6.696;2023-01-25T02:18:52;56.45;;;26.20;;
65691;SDS011;52411;52.716;6.696;2023-01-25T02:21:19;54.35;;;25.40;;
65691;SDS011;52411;52.716;6.696;2023-01-25T02:23:50;49.38;;;23.90;;
65691;SDS011;52411;52.716;6.696;2023-01-25T02:26:27;54.40;;;26.00;;
65691;SDS011;52411;52.716;6.696;2023-01-25T02:28:54;56.47;;;26.35;;
65691;SDS011;52411;52.716;6.696;2023-01-25T02:31:21;54.17;;;25.05;;
65691;SDS011;52411;52.716;6.696;2023-01-25T02:33:47;54.70;;;26.77;;
65691;SDS011;52411;52.716;6.696;2023-01-25T02:36:18;52.40;;;25.42;;
65691;SDS011;52411;52.716;6.696;2023-01-25T02:39:03;53.47;;;24.67;;
65691;SDS011;52411;52.716;6.696;2023-01-25T02:41:33;52.88;;;25.65;;
65691;SDS011;52411;52.716;6.696;2023-01-25T02:46:32;49.88;;;23.20;;
65691;SDS011;52411;52.716;6.696;2023-01-25T02:49:01;49.05;;;23.65;;
65691;SDS011;52411;52.716;6.696;2023-01-25T02:51:28;53.80;;;25.10;;
65691;SDS011;52411;52.716;6.696;2023-01-25T02:53:58;48.05;;;23.50;;
65691;SDS011;52411;52.716;6.696;2023-01-25T02:56:24;48.10;;;23.95;;
65691;SDS011;52411;52.716;6.696;2023-01-25T02:58:49;49.55;;;23.48;;
65691;SDS011;52411;52.716;6.696;2023-01-25T03:01:15;50.88;;;23.77;;
65691;SDS011;52411;52.716;6.696;2023-01-25T03:03:41;49.38;;;23.98;;
65691;SDS011;52411;52.716;6.696;2023-01-25T03:06:07;48.90;;;24.50;;
65691;SDS011;52411;52.716;6.696;2023-01-25T03:08:33;51.42;;;23.75;;
65691;SDS011;52411;52.716;6.696;2023-01-25T03:11:00;48.47;;;22.08;;
65691;SDS011;52411;52.716;6.696;2023-01-25T03:13:27;49.92;;;23.83;;
65691;SDS011;52411;52.716;6.696;2023-01-25T03:15:57;48.95;;;22.77;;
65691;SDS011;52411;52.716;6.696;2023-01-25T03:18:24;51.28;;;24.83;;
65691;SDS011;52411;52.716;6.696;2023-01-25T03:20:50;48.90;;;23.10;;
65691;SDS011;52411;52.716;6.696;2023-01-25T03:23:16;46.13;;;22.58;;
65691;SDS011;52411;52.716;6.696;2023-01-25T03:25:41;47.83;;;22.83;;
65691;SDS011;52411;52.716;6.696;2023-01-25T03:28:07;49.25;;;24.00;;
65691;SDS011;52411;52.716;6.696;2023-01-25T03:30:33;49.30;;;23.92;;
65691;SDS011;52411;52.716;6.696;2023-01-25T03:32:59;53.08;;;23.70;;
65691;SDS011;52411;52.716;6.696;2023-01-25T03:35:24;50.35;;;23.45;;
65691;SDS011;52411;52.716;6.696;2023-01-25T03:37:50;51.03;;;24.27;;
65691;SDS011;52411;52.716;6.696;2023-01-25T03:40:16;48.47;;;22.60;;
65691;SDS011;52411;52.716;6.696;2023-01-25T03:42:42;50.72;;;24.25;;
65691;SDS011;52411;52.716;6.696;2023-01-25T03:45:07;48.88;;;23.33;;
65691;SDS011;52411;52.716;6.696;2023-01-25T03:47:33;46.42;;;23.02;;
65691;SDS011;52411;52.716;6.696;2023-01-25T03:49:59;45.45;;;21.50;;
65691;SDS011;52411;52.716;6.696;2023-01-25T03:52:25;46.97;;;23.08;;
65691;SDS011;52411;52.716;6.696;2023-01-25T03:54:51;52.58;;;23.60;;
65691;SDS011;52411;52.716;6.696;2023-01-25T03:57:17;49.80;;;24.48;;
65691;SDS011;52411;52.716;6.696;2023-01-25T03:59:42;50.20;;;23.25;;
65691;SDS011;52411;52.716;6.696;2023-01-25T04:02:08;48.30;;;23.40;;
65691;SDS011;52411;52.716;6.696;2023-01-25T04:04:34;46.90;;;22.92;;
65691;SDS011;52411;52.716;6.696;2023-01-25T04:06:59;49.08;;;23.65;;
65691;SDS011;52411;52.716;6.696;2023-01-25T04:09:25;45.70;;;21.08;;
65691;SDS011;52411;52.716;6.696;2023-01-25T04:11:51;47.75;;;23.20;;
65691;SDS011;52411;52.716;6.696;2023-01-25T04:14:16;46.33;;;21.88;;
65691;SDS011;52411;52.716;6.696;2023-01-25T04:16:42;43.88;;;21.65;;
65691;SDS011;52411;52.716;6.696;2023-01-25T04:19:08;48.40;;;22.33;;
65691;SDS011;52411;52.716;6.696;2023-01-25T04:21:33;44.38;;;20.85;;
65691;SDS011;52411;52.716;6.696;2023-01-25T04:23:59;47.80;;;22.20;;
65691;SDS011;52411;52.716;6.696;2023-01-25T04:26:24;48.03;;;20.92;;
65691;SDS011;52411;52.716;6.696;2023-01-25T04:28:50;51.53;;;23.70;;
65691;SDS011;52411;52.716;6.696;2023-01-25T04:31:15;45.53;;;21.98;;
65691;SDS011;52411;52.716;6.696;2023-01-25T04:33:41;46.03;;;22.58;;
65691;SDS011;52411;52.716;6.696;2023-01-25T04:36:07;48.92;;;22.92;;
65691;SDS011;52411;52.716;6.696;2023-01-25T04:38:32;45.75;;;21.58;;
65691;SDS011;52411;52.716;6.696;2023-01-25T04:40:58;49.70;;;22.25;;
65691;SDS011;52411;52.716;6.696;2023-01-25T04:43:24;49.42;;;22.20;;
65691;SDS011;52411;52.716;6.696;2023-01-25T04:45:50;46.65;;;22.10;;
65691;SDS011;52411;52.716;6.696;2023-01-25T04:48:16;49.47;;;23.15;;
65691;SDS011;52411;52.716;6.696;2023-01-25T04:50:42;51.42;;;23.17;;
65691;SDS011;52411;52.716;6.696;2023-01-25T04:53:09;47.78;;;22.90;;
65691;SDS011;52411;52.716;6.696;2023-01-25T04:55:36;48.78;;;22.65;;
65691;SDS011;52411;52.716;6.696;2023-01-25T04:58:02;46.42;;;22.50;;
65691;SDS011;52411;52.716;6.696;2023-01-25T05:00:28;49.25;;;23.70;;
65691;SDS011;52411;52.716;6.696;2023-01-25T05:02:55;53.63;;;24.05;;
65691;SDS011;52411;52.716;6.696;2023-01-25T05:05:21;49.08;;;23.75;;
65691;SDS011;52411;52.716;6.696;2023-01-25T05:07:46;50.63;;;24.02;;
65691;SDS011;52411;52.716;6.696;2023-01-25T05:10:12;49.92;;;22.50;;
65691;SDS011;52411;52.716;6.696;2023-01-25T05:12:38;51.35;;;22.67;;
65691;SDS011;52411;52.716;6.696;2023-01-25T05:15:04;52.60;;;23.20;;
65691;SDS011;52411;52.716;6.696;2023-01-25T05:17:30;47.58;;;22.60;;
65691;SDS011;52411;52.716;6.696;2023-01-25T05:19:55;50.65;;;23.10;;
65691;SDS011;52411;52.716;6.696;2023-01-25T05:22:21;46.75;;;22.23;;
65691;SDS011;52411;52.716;6.696;2023-01-25T05:24:47;46.35;;;22.00;;
65691;SDS011;52411;52.716;6.696;2023-01-25T05:27:14;43.85;;;21.95;;
65691;SDS011;52411;52.716;6.696;2023-01-25T05:29:42;44.55;;;21.75;;
65691;SDS011;52411;52.716;6.696;2023-01-25T05:32:10;47.30;;;23.13;;
65691;SDS011;52411;52.716;6.696;2023-01-25T05:34:37;44.00;;;21.00;;
65691;SDS011;52411;52.716;6.696;2023-01-25T05:37:04;44.75;;;22.20;;
65691;SDS011;52411;52.716;6.696;2023-01-25T05:39:31;46.13;;;21.83;;
65691;SDS011;52411;52.716;6.696;2023-01-25T05:41:57;46.25;;;21.95;;
65691;SDS011;52411;52.716;6.696;2023-01-25T05:44:22;41.92;;;20.58;;
65691;SDS011;52411;52.716;6.696;2023-01-25T05:46:48;45.50;;;21.52;;
65691;SDS011;52411;52.716;6.696;2023-01-25T05:49:14;42.90;;;21.02;;
65691;SDS011;52411;52.716;6.696;2023-01-25T05:51:40;42.60;;;20.08;;
65691;SDS011;52411;52.716;6.696;2023-01-25T05:54:06;43.67;;;20.25;;
65691;SDS011;52411;52.716;6.696;2023-01-25T05:56:35;46.70;;;20.67;;
65691;SDS011;52411;52.716;6.696;2023-01-25T05:59:01;44.30;;;20.52;;
65691;SDS011;52411;52.716;6.696;2023-01-25T06:01:29;39.88;;;19.08;;
65691;SDS011;52411;52.716;6.696;2023-01-25T06:03:55;40.15;;;19.70;;
65691;SDS011;52411;52.716;6.696;2023-01-25T06:06:21;44.05;;;20.30;;
65691;SDS011;52411;52.716;6.696;2023-01-25T06:08:47;40.97;;;19.98;;
65691;SDS011;52411;52.716;6.696;2023-01-25T06:11:14;41.25;;;19.92;;
65691;SDS011;52411;52.716;6.696;2023-01-25T06:13:42;44.05;;;20.23;;
65691;SDS011;52411;52.716;6.696;2023-01-25T06:16:08;41.38;;;19.88;;
65691;SDS011;52411;52.716;6.696;2023-01-25T06:18:34;46.33;;;21.17;;
65691;SDS011;52411;52.716;6.696;2023-01-25T06:21:01;42.65;;;20.65;;
65691;SDS011;52411;52.716;6.696;2023-01-25T06:23:27;41.70;;;19.25;;
65691;SDS011;52411;52.716;6.696;2023-01-25T06:25:57;40.05;;;20.27;;
65691;SDS011;52411;52.716;6.696;2023-01-25T06:28:30;40.05;;;19.85;;
65691;SDS011;52411;52.716;6.696;2023-01-25T06:31:07;44.97;;;20.35;;
65691;SDS011;52411;52.716;6.696;2023-01-25T06:33:38;41.45;;;19.90;;
65691;SDS011;52411;52.716;6.696;2023-01-25T06:36:05;37.88;;;19.00;;
65691;SDS011;52411;52.716;6.696;2023-01-25T06:38:34;40.40;;;20.23;;
65691;SDS011;52411;52.716;6.696;2023-01-25T06:41:00;40.30;;;19.58;;
65691;SDS011;52411;52.716;6.696;2023-01-25T06:43:27;39.42;;;19.15;;
65691;SDS011;52411;52.716;6.696;2023-01-25T06:46:00;42.22;;;19.80;;
65691;SDS011;52411;52.716;6.696;2023-01-25T06:48:30;38.55;;;19.00;;
65691;SDS011;52411;52.716;6.696;2023-01-25T06:50:56;38.65;;;19.20;;
65691;SDS011;52411;52.716;6.696;2023-01-25T06:53:24;41.20;;;19.10;;
65691;SDS011;52411;52.716;6.696;2023-01-25T06:56:05;41.17;;;19.67;;
65691;SDS011;52411;52.716;6.696;2023-01-25T06:58:33;36.65;;;18.17;;
65691;SDS011;52411;52.716;6.696;2023-01-25T07:00:59;41.47;;;20.13;;
65691;SDS011;52411;52.716;6.696;2023-01-25T07:03:27;40.92;;;20.17;;
65691;SDS011;52411;52.716;6.696;2023-01-25T07:06:01;40.95;;;19.70;;
65691;SDS011;52411;52.716;6.696;2023-01-25T07:08:28;37.38;;;18.85;;
65691;SDS011;52411;52.716;6.696;2023-01-25T07:10:55;42.10;;;19.92;;
65691;SDS011;52411;52.716;6.696;2023-01-25T07:13:22;40.63;;;19.38;;
65691;SDS011;52411;52.716;6.696;2023-01-25T07:16:07;43.25;;;20.15;;
65691;SDS011;52411;52.716;6.696;2023-01-25T07:18:38;41.53;;;19.25;;
65691;SDS011;52411;52.716;6.696;2023-01-25T07:21:09;41.38;;;19.58;;
65691;SDS011;52411;52.716;6.696;2023-01-25T07:23:39;42.40;;;20.02;;
65691;SDS011;52411;52.716;6.696;2023-01-25T07:26:08;41.25;;;19.65;;
65691;SDS011;52411;52.716;6.696;2023-01-25T07:28:41;40.28;;;20.52;;
65691;SDS011;52411;52.716;6.696;2023-01-25T07:31:07;39.17;;;19.67;;
65691;SDS011;52411;52.716;6.696;2023-01-25T07:33:33;38.67;;;19.27;;
65691;SDS011;52411;52.716;6.696;2023-01-25T07:36:00;44.55;;;21.08;;
65691;SDS011;52411;52.716;6.696;2023-01-25T07:38:30;41.87;;;20.00;;
65691;SDS011;52411;52.716;6.696;2023-01-25T07:40:55;44.60;;;22.83;;
65691;SDS011;52411;52.716;6.696;2023-01-25T07:43:21;45.20;;;21.23;;
65691;SDS011;52411;52.716;6.696;2023-01-25T07:45:47;40.75;;;20.02;;
65691;SDS011;52411;52.716;6.696;2023-01-25T07:48:13;42.97;;;20.55;;
65691;SDS011;52411;52.716;6.696;2023-01-25T07:50:39;46.13;;;21.60;;
65691;SDS011;52411;52.716;6.696;2023-01-25T07:53:05;43.15;;;20.58;;
65691;SDS011;52411;52.716;6.696;2023-01-25T07:55:31;43.03;;;20.67;;
65691;SDS011;52411;52.716;6.696;2023-01-25T07:57:57;39.78;;;19.27;;
65691;SDS011;52411;52.716;6.696;2023-01-25T08:00:24;42.95;;;20.25;;
65691;SDS011;52411;52.716;6.696;2023-01-25T08:02:50;41.92;;;19.10;;
65691;SDS011;52411;52.716;6.696;2023-01-25T08:05:16;46.92;;;21.63;;
65691;SDS011;52411;52.716;6.696;2023-01-25T08:07:43;44.00;;;21.52;;
65691;SDS011;52411;52.716;6.696;2023-01-25T08:10:09;50.35;;;21.73;;
65691;SDS011;52411;52.716;6.696;2023-01-25T08:12:35;44.88;;;21.80;;
65691;SDS011;52411;52.716;6.696;2023-01-25T08:15:02;43.30;;;20.88;;
65691;SDS011;52411;52.716;6.696;2023-01-25T08:17:28;48.97;;;21.80;;
65691;SDS011;52411;52.716;6.696;2023-01-25T08:19:57;47.35;;;21.83;;
65691;SDS011;52411;52.716;6.696;2023-01-25T08:22:26;44.20;;;20.08;;
65691;SDS011;52411;52.716;6.696;2023-01-25T08:24:52;44.83;;;20.67;;
65691;SDS011;52411;52.716;6.696;2023-01-25T08:27:18;44.50;;;20.40;;
65691;SDS011;52411;52.716;6.696;2023-01-25T08:29:45;46.53;;;20.38;;
65691;SDS011;52411;52.716;6.696;2023-01-25T08:32:11;45.20;;;21.33;;
65691;SDS011;52411;52.716;6.696;2023-01-25T08:34:37;47.88;;;21.58;;
65691;SDS011;52411;52.716;6.696;2023-01-25T08:37:03;45.70;;;20.30;;
65691;SDS011;52411;52.716;6.696;2023-01-25T08:39:29;48.97;;;20.40;;
65691;SDS011;52411;52.716;6.696;2023-01-25T08:41:55;48.35;;;20.90;;
65691;SDS011;52411;52.716;6.696;2023-01-25T08:44:21;44.05;;;20.63;;
65691;SDS011;52411;52.716;6.696;2023-01-25T08:46:48;47.33;;;22.27;;
65691;SDS011;52411;52.716;6.696;2023-01-25T08:49:14;46.58;;;20.48;;
65691;SDS011;52411;52.716;6.696;2023-01-25T08:51:40;44.47;;;20.67;;
65691;SDS011;52411;52.716;6.696;2023-01-25T08:54:06;47.55;;;21.80;;
65691;SDS011;52411;52.716;6.696;2023-01-25T08:56:38;44.92;;;21.35;;
65691;SDS011;52411;52.716;6.696;2023-01-25T08:59:04;48.42;;;22.65;;
65691;SDS011;52411;52.716;6.696;2023-01-25T09:01:30;45.13;;;20.27;;
65691;SDS011;52411;52.716;6.696;2023-01-25T09:03:56;47.55;;;22.55;;
65691;SDS011;52411;52.716;6.696;2023-01-25T09:06:22;49.63;;;22.85;;
65691;SDS011;52411;52.716;6.696;2023-01-25T09:08:48;45.25;;;20.38;;
65691;SDS011;52411;52.716;6.696;2023-01-25T09:11:15;42.97;;;20.05;;
65691;SDS011;52411;52.716;6.696;2023-01-25T09:13:42;45.97;;;21.45;;
65691;SDS011;52411;52.716;6.696;2023-01-25T09:16:09;46.58;;;21.67;;
65691;SDS011;52411;52.716;6.696;2023-01-25T09:18:37;39.92;;;18.00;;
65691;SDS011;52411;52.716;6.696;2023-01-25T09:21:05;45.05;;;21.02;;
65691;SDS011;52411;52.716;6.696;2023-01-25T09:23:38;47.83;;;20.92;;
65691;SDS011;52411;52.716;6.696;2023-01-25T09:26:04;45.65;;;19.95;;
65691;SDS011;52411;52.716;6.696;2023-01-25T09:28:31;45.22;;;21.27;;
65691;SDS011;52411;52.716;6.696;2023-01-25T09:30:58;45.63;;;19.88;;
65691;SDS011;52411;52.716;6.696;2023-01-25T09:33:30;39.95;;;18.50;;
65691;SDS011;52411;52.716;6.696;2023-01-25T09:35:57;45.42;;;20.38;;
65691;SDS011;52411;52.716;6.696;2023-01-25T09:38:23;45.55;;;20.15;;
65691;SDS011;52411;52.716;6.696;2023-01-25T09:41:04;39.38;;;17.95;;
65691;SDS011;52411;52.716;6.696;2023-01-25T09:46:28;41.47;;;19.02;;
65691;SDS011;52411;52.716;6.696;2023-01-25T09:55:09;40.50;;;18.63;;
65691;SDS011;52411;52.716;6.696;2023-01-25T09:57:38;40.88;;;18.70;;
65691;SDS011;52411;52.716;6.696;2023-01-25T10:00:27;42.47;;;19.55;;
65691;SDS011;52411;52.716;6.696;2023-01-25T10:03:12;39.35;;;17.90;;
65691;SDS011;52411;52.716;6.696;2023-01-25T10:05:49;44.38;;;19.60;;
65691;SDS011;52411;52.716;6.696;2023-01-25T10:08:31;42.20;;;19.15;;
65691;SDS011;52411;52.716;6.696;2023-01-25T10:11:12;38.35;;;18.77;;
65691;SDS011;52411;52.716;6.696;2023-01-25T10:13:48;40.22;;;18.40;;
65691;SDS011;52411;52.716;6.696;2023-01-25T10:16:19;45.03;;;20.85;;
65691;SDS011;52411;52.716;6.696;2023-01-25T10:21:48;40.72;;;19.50;;
65691;SDS011;52411;52.716;6.696;2023-01-25T10:27:12;44.20;;;20.65;;
65691;SDS011;52411;52.716;6.696;2023-01-25T10:29:45;44.33;;;20.20;;
65691;SDS011;52411;52.716;6.696;2023-01-25T10:32:18;47.13;;;19.65;;
65691;SDS011;52411;52.716;6.696;2023-01-25T10:34:47;45.47;;;20.02;;
65691;SDS011;52411;52.716;6.696;2023-01-25T10:37:22;41.80;;;19.00;;
65691;SDS011;52411;52.716;6.696;2023-01-25T10:40:03;47.08;;;20.20;;
65691;SDS011;52411;52.716;6.696;2023-01-25T10:42:36;45.22;;;19.27;;
65691;SDS011;52411;52.716;6.696;2023-01-25T10:45:13;40.85;;;19.67;;
65691;SDS011;52411;52.716;6.696;2023-01-25T10:47:45;46.20;;;19.52;;
65691;SDS011;52411;52.716;6.696;2023-01-25T10:58:41;44.75;;;19.50;;
65691;SDS011;52411;52.716;6.696;2023-01-25T11:06:54;41.35;;;18.63;;
65691;SDS011;52411;52.716;6.696;2023-01-25T11:11:55;44.25;;;19.00;;
65691;SDS011;52411;52.716;6.696;2023-01-25T11:14:23;41.15;;;18.73;;
65691;SDS011;52411;52.716;6.696;2023-01-25T11:16:51;38.78;;;18.88;;
65691;SDS011;52411;52.716;6.696;2023-01-25T11:19:37;50.10;;;21.20;;
65691;SDS011;52411;52.716;6.696;2023-01-25T11:22:25;47.65;;;20.50;;
65691;SDS011;52411;52.716;6.696;2023-01-25T11:24:50;46.95;;;21.23;;
65691;SDS011;52411;52.716;6.696;2023-01-25T11:30:06;43.47;;;20.17;;
65691;SDS011;52411;52.716;6.696;2023-01-25T11:32:34;44.75;;;19.13;;
65691;SDS011;52411;52.716;6.696;2023-01-25T11:35:02;49.67;;;20.88;;
65691;SDS011;52411;52.716;6.696;2023-01-25T11:40:14;49.45;;;21.58;;
65691;SDS011;52411;52.716;6.696;2023-01-25T11:42:50;42.03;;;19.75;;
65691;SDS011;52411;52.716;6.696;2023-01-25T11:45:37;43.13;;;18.63;;
65691;SDS011;52411;52.716;6.696;2023-01-25T11:54:27;43.33;;;19.13;;
65691;SDS011;52411;52.716;6.696;2023-01-25T11:57:09;42.75;;;18.98;;
65691;SDS011;52411;52.716;6.696;2023-01-25T12:03:35;40.50;;;17.35;;
65691;SDS011;52411;52.716;6.696;2023-01-25T12:08:26;44.40;;;19.40;;
65691;SDS011;52411;52.716;6.696;2023-01-25T12:11:15;48.40;;;21.00;;
65691;SDS011;52411;52.716;6.696;2023-01-25T12:22:12;41.33;;;18.05;;
65691;SDS011;52411;52.716;6.696;2023-01-25T12:29:55;47.33;;;20.23;;
65691;SDS011;52411;52.716;6.696;2023-01-25T12:32:49;47.72;;;20.23;;
65691;SDS011;52411;52.716;6.696;2023-01-25T12:35:29;49.15;;;20.55;;
65691;SDS011;52411;52.716;6.696;2023-01-25T12:37:59;49.85;;;23.00;;
65691;SDS011;52411;52.716;6.696;2023-01-25T12:43:08;46.75;;;20.35;;
65691;SDS011;52411;52.716;6.696;2023-01-25T12:45:47;44.35;;;19.42;;
65691;SDS011;52411;52.716;6.696;2023-01-25T12:48:26;46.60;;;19.48;;
65691;SDS011;52411;52.716;6.696;2023-01-25T12:50:57;46.40;;;20.35;;
65691;SDS011;52411;52.716;6.696;2023-01-25T12:53:40;47.28;;;19.73;;
65691;SDS011;52411;52.716;6.696;2023-01-25T12:56:16;49.10;;;19.70;;
65691;SDS011;52411;52.716;6.696;2023-01-25T12:58:53;48.50;;;20.17;;
65691;SDS011;52411;52.716;6.696;2023-01-25T13:01:29;44.67;;;19.77;;
65691;SDS011;52411;52.716;6.696;2023-01-25T13:09:19;47.65;;;20.52;;
65691;SDS011;52411;52.716;6.696;2023-01-25T13:11:52;45.80;;;18.77;;
65691;SDS011;52411;52.716;6.696;2023-01-25T13:17:19;45.03;;;19.10;;
65691;SDS011;52411;52.716;6.696;2023-01-25T13:20:07;42.28;;;18.88;;
65691;SDS011;52411;52.716;6.696;2023-01-25T13:23:02;43.63;;;18.67;;
65691;SDS011;52411;52.716;6.696;2023-01-25T13:25:28;46.97;;;20.05;;
65691;SDS011;52411;52.716;6.696;2023-01-25T13:31:03;43.85;;;18.25;;
65691;SDS011;52411;52.716;6.696;2023-01-25T13:33:32;47.97;;;20.23;;
65691;SDS011;52411;52.716;6.696;2023-01-25T13:44:35;51.10;;;19.98;;
65691;SDS011;52411;52.716;6.696;2023-01-25T13:47:05;48.15;;;18.27;;
65691;SDS011;52411;52.716;6.696;2023-01-25T13:52:22;42.92;;;18.35;;
65691;SDS011;52411;52.716;6.696;2023-01-25T13:54:52;48.80;;;20.90;;
65691;SDS011;52411;52.716;6.696;2023-01-25T13:57:21;41.70;;;17.50;;
65691;SDS011;52411;52.716;6.696;2023-01-25T14:02:15;48.55;;;18.80;;
65691;SDS011;52411;52.716;6.696;2023-01-25T14:04:47;42.30;;;16.90;;
65691;SDS011;52411;52.716;6.696;2023-01-25T14:07:15;48.25;;;16.85;;
65691;SDS011;52411;52.716;6.696;2023-01-25T14:09:44;47.05;;;18.73;;
65691;SDS011;52411;52.716;6.696;2023-01-25T14:12:13;43.33;;;18.08;;
65691;SDS011;52411;52.716;6.696;2023-01-25T14:17:44;44.22;;;18.48;;
65691;SDS011;52411;52.716;6.696;2023-01-25T14:20:16;55.15;;;20.65;;
65691;SDS011;52411;52.716;6.696;2023-01-25T14:22:47;56.28;;;22.38;;
65691;SDS011;52411;52.716;6.696;2023-01-25T14:25:15;48.50;;;18.95;;
65691;SDS011;52411;52.716;6.696;2023-01-25T14:27:47;53.80;;;20.90;;
65691;SDS011;52411;52.716;6.696;2023-01-25T14:30:19;52.05;;;20.00;;
65691;SDS011;52411;52.716;6.696;2023-01-25T14:37:54;50.00;;;20.27;;
65691;SDS011;52411;52.716;6.696;2023-01-25T14:40:20;51.80;;;20.50;;
65691;SDS011;52411;52.716;6.696;2023-01-25T14:42:48;51.97;;;19.52;;
65691;SDS011;52411;52.716;6.696;2023-01-25T14:45:15;45.63;;;18.85;;
65691;SDS011;52411;52.716;6.696;2023-01-25T14:47:41;45.03;;;18.55;;
65691;SDS011;52411;52.716;6.696;2023-01-25T14:52:58;50.90;;;19.30;;
65691;SDS011;52411;52.716;6.696;2023-01-25T14:55:31;50.03;;;18.92;;
65691;SDS011;52411;52.716;6.696;2023-01-25T14:57:58;50.30;;;19.33;;
65691;SDS011;52411;52.716;6.696;2023-01-25T15:00:25;56.00;;;20.10;;
65691;SDS011;52411;52.716;6.696;2023-01-25T15:03:00;48.08;;;18.45;;
65691;SDS011;52411;52.716;6.696;2023-01-25T15:05:30;45.38;;;19.20;;
65691;SDS011;52411;52.716;6.696;2023-01-25T15:10:34;49.35;;;19.63;;
65691;SDS011;52411;52.716;6.696;2023-01-25T15:15:36;50.20;;;19.40;;
65691;SDS011;52411;52.716;6.696;2023-01-25T15:23:55;48.38;;;18.42;;
65691;SDS011;52411;52.716;6.696;2023-01-25T15:26:31;58.25;;;21.38;;
65691;SDS011;52411;52.716;6.696;2023-01-25T15:28:59;49.72;;;20.08;;
65691;SDS011;52411;52.716;6.696;2023-01-25T15:31:38;52.20;;;19.73;;
65691;SDS011;52411;52.716;6.696;2023-01-25T15:34:04;51.83;;;20.00;;
65691;SDS011;52411;52.716;6.696;2023-01-25T15:36:30;49.67;;;19.05;;
65691;SDS011;52411;52.716;6.696;2023-01-25T15:38:57;55.40;;;21.50;;
65691;SDS011;52411;52.716;6.696;2023-01-25T15:41:23;54.20;;;20.73;;
65691;SDS011;52411;52.716;6.696;2023-01-25T15:43:49;56.17;;;20.23;;
65691;SDS011;52411;52.716;6.696;2023-01-25T15:46:18;52.42;;;19.00;;
65691;SDS011;52411;52.716;6.696;2023-01-25T15:48:50;52.20;;;19.20;;
65691;SDS011;52411;52.716;6.696;2023-01-25T15:51:17;53.75;;;20.50;;
65691;SDS011;52411;52.716;6.696;2023-01-25T15:53:43;53.40;;;19.27;;
65691;SDS011;52411;52.716;6.696;2023-01-25T15:56:12;53.05;;;19.58;;
65691;SDS011;52411;52.716;6.696;2023-01-25T15:58:52;50.83;;;19.17;;
65691;SDS011;52411;52.716;6.696;2023-01-25T16:01:19;49.85;;;19.25;;
65691;SDS011;52411;52.716;6.696;2023-01-25T16:03:45;62.55;;;20.25;;
65691;SDS011;52411;52.716;6.696;2023-01-25T16:06:24;55.55;;;20.75;;
65691;SDS011;52411;52.716;6.696;2023-01-25T16:09:19;54.58;;;19.80;;
65691;SDS011;52411;52.716;6.696;2023-01-25T16:11:48;59.95;;;20.35;;
65691;SDS011;52411;52.716;6.696;2023-01-25T16:14:16;48.67;;;19.60;;
65691;SDS011;52411;52.716;6.696;2023-01-25T16:16:44;49.00;;;17.83;;
65691;SDS011;52411;52.716;6.696;2023-01-25T16:19:13;51.65;;;18.27;;
65691;SDS011;52411;52.716;6.696;2023-01-25T16:21:40;51.05;;;19.35;;
65691;SDS011;52411;52.716;6.696;2023-01-25T16:24:07;51.42;;;19.15;;
65691;SDS011;52411;52.716;6.696;2023-01-25T16:26:33;52.13;;;19.65;;
65691;SDS011;52411;52.716;6.696;2023-01-25T16:29:02;54.92;;;18.52;;
65691;SDS011;52411;52.716;6.696;2023-01-25T16:31:27;56.20;;;19.25;;
65691;SDS011;52411;52.716;6.696;2023-01-25T16:33:53;54.85;;;19.63;;
65691;SDS011;52411;52.716;6.696;2023-01-25T16:36:19;61.75;;;21.73;;
65691;SDS011;52411;52.716;6.696;2023-01-25T16:38:46;55.00;;;19.50;;